Time;durP1;ratioP1;P1;durP2;ratioP2;P2;SDS_P1;SDS_P2;PMS_P1;PMS_P2;Temp;Humidity;BMP_temperature;BMP_pressure;BME280_temperature;BME280_humidity;BME280_pressure;Samples;Min_cycle;Max_cycle;Signal;HPM_P1;HPM_P2
2021/08/25 00:01:40;;;;;;;24.17;13.23;;;12.60;90.60;;;;;;5032461;28;20054;-79
2021/08/25 00:04:08;;;;;;;21.67;13.10;;;12.50;90.60;;;;;;5014929;28;20046;-78
2021/08/25 00:06:36;;;;;;;27.20;13.75;;;12.50;90.70;;;;;;5032091;28;20052;-77
2021/08/25 00:09:04;;;;;;;26.88;14.90;;;12.50;90.80;;;;;;5031230;28;20057;-78
2021/08/25 00:11:32;;;;;;;31.55;13.50;;;12.50;90.90;;;;;;5032330;28;20071;-79
2021/08/25 00:14:00;;;;;;;25.55;13.73;;;12.60;90.90;;;;;;5022663;28;20065;-78
2021/08/25 00:16:28;;;;;;;21.50;12.40;;;12.60;90.90;;;;;;5013280;28;20057;-79
2021/08/25 00:18:55;;;;;;;20.85;13.40;;;12.70;90.90;;;;;;4994988;28;20053;-77
2021/08/25 00:21:23;;;;;;;23.17;12.38;;;12.70;90.90;;;;;;5011740;28;20042;-77
2021/08/25 00:23:51;;;;;;;24.27;12.43;;;12.80;90.80;;;;;;5012677;28;20061;-78
2021/08/25 00:26:19;;;;;;;23.90;13.45;;;12.80;90.70;;;;;;5010909;28;20061;-79
2021/08/25 00:28:46;;;;;;;22.45;12.85;;;12.80;90.70;;;;;;5010778;28;20042;-78
2021/08/25 00:31:14;;;;;;;22.27;12.63;;;12.90;90.70;;;;;;5011318;28;20057;-78
2021/08/25 00:33:42;;;;;;;17.98;11.50;;;12.90;90.70;;;;;;5012553;28;20380;-78
2021/08/25 00:36:09;;;;;;;18.88;11.23;;;13.00;90.60;;;;;;5011398;28;20046;-79
2021/08/25 00:38:40;;;;;;;20.42;12.15;;;13.10;90.50;;;;;;4995470;28;20444;-78
2021/08/25 00:41:08;;;;;;;22.30;11.52;;;13.20;90.40;;;;;;4994707;28;20065;-78
2021/08/25 00:43:35;;;;;;;25.42;11.75;;;13.20;90.30;;;;;;5010696;28;20049;-78
2021/08/25 00:46:05;;;;;;;18.23;11.20;;;13.30;90.20;;;;;;5015129;28;20061;-78
2021/08/25 00:48:35;;;;;;;19.08;10.73;;;13.30;90.10;;;;;;5014655;28;20042;-77
2021/08/25 00:51:03;;;;;;;22.25;11.95;;;13.40;90.00;;;;;;5015722;28;20068;-78
2021/08/25 00:53:33;;;;;;;19.95;11.65;;;13.50;89.80;;;;;;5014950;28;20050;-78
2021/08/25 00:56:07;;;;;;;21.80;12.43;;;13.60;89.70;;;;;;5014718;28;20050;-78
2021/08/25 00:58:42;;;;;;;25.58;11.80;;;13.60;89.70;;;;;;5031639;28;20041;-81
2021/08/25 01:01:31;;;;;;;19.83;11.45;;;13.70;89.60;;;;;;5034683;28;20049;-77
2021/08/25 01:04:03;;;;;;;15.45;10.73;;;13.70;89.50;;;;;;5017935;28;20076;-78
2021/08/25 01:06:31;;;;;;;18.95;11.07;;;13.70;89.40;;;;;;5035365;28;20418;-77
2021/08/25 01:09:02;;;;;;;19.92;11.80;;;13.70;89.30;;;;;;5033751;28;20052;-77
2021/08/25 01:11:32;;;;;;;17.95;11.20;;;13.70;89.30;;;;;;5033843;28;20064;-77
2021/08/25 01:14:04;;;;;;;19.42;11.95;;;13.80;89.30;;;;;;5033957;28;20049;-77
2021/08/25 01:16:31;;;;;;;16.50;10.05;;;13.80;89.30;;;;;;5017988;28;20057;-77
2021/08/25 01:18:59;;;;;;;15.82;9.73;;;13.80;89.20;;;;;;5034243;28;20056;-78
2021/08/25 01:21:28;;;;;;;18.20;10.98;;;13.80;89.10;;;;;;5035167;28;20487;-78
2021/08/25 01:23:56;;;;;;;16.92;10.30;;;13.80;89.00;;;;;;5035054;28;20049;-78
2021/08/25 01:26:39;;;;;;;17.63;10.45;;;13.80;89.00;;;;;;5033435;28;20049;-78
2021/08/25 01:29:20;;;;;;;16.02;10.13;;;13.80;89.00;;;;;;5033531;28;20045;-77
2021/08/25 01:31:48;;;;;;;18.15;10.10;;;13.80;89.00;;;;;;5035100;28;20521;-78
2021/08/25 01:34:15;;;;;;;19.98;10.90;;;13.80;88.90;;;;;;5034709;28;20052;-78
2021/08/25 01:36:43;;;;;;;15.52;11.30;;;13.80;88.90;;;;;;5001121;28;20050;-77
2021/08/25 01:39:11;;;;;;;21.52;12.18;;;13.80;88.90;;;;;;5033614;28;20410;-78
2021/08/25 01:41:39;;;;;;;26.13;12.98;;;13.90;88.90;;;;;;5033273;28;20056;-78
2021/08/25 01:44:06;;;;;;;24.30;13.90;;;13.90;88.90;;;;;;5033511;28;20053;-78
2021/08/25 01:46:40;;;;;;;30.02;13.55;;;14.00;89.00;;;;;;5033245;28;20042;-79
2021/08/25 01:49:10;;;;;;;26.60;12.27;;;14.00;89.10;;;;;;5033447;28;20053;-78
2021/08/25 01:51:41;;;;;;;21.95;12.15;;;14.00;89.10;;;;;;5016466;28;20057;-78
2021/08/25 01:54:16;;;;;;;19.48;13.05;;;14.10;89.00;;;;;;5017529;28;20054;-77
2021/08/25 01:56:45;;;;;;;24.08;13.57;;;14.10;89.00;;;;;;5034125;28;20061;-78
2021/08/25 01:59:12;;;;;;;26.48;13.65;;;14.10;89.10;;;;;;5034246;28;20041;-77
2021/08/25 02:01:46;;;;;;;23.85;14.15;;;14.10;89.10;;;;;;5033128;28;20049;-79
2021/08/25 02:04:15;;;;;;;21.30;14.05;;;14.20;89.10;;;;;;5034296;28;20075;-79
2021/08/25 02:06:42;;;;;;;22.30;14.43;;;14.20;89.20;;;;;;5034724;28;20053;-78
2021/08/25 02:09:12;;;;;;;29.05;16.20;;;14.20;89.20;;;;;;5033024;28;20045;-78
2021/08/25 02:11:43;;;;;;;24.75;16.33;;;14.20;89.20;;;;;;5033938;28;20056;-78
2021/08/25 02:14:16;;;;;;;25.98;15.45;;;14.20;89.30;;;;;;5034134;28;20042;-78
2021/08/25 02:16:44;;;;;;;;;;;14.20;89.30;;;;;;5033182;28;20061;-79
2021/08/25 02:19:14;;;;;;;30.75;15.10;;;14.30;89.20;;;;;;5034067;28;19921;-79
2021/08/25 02:21:42;;;;;;;24.38;14.45;;;14.30;89.10;;;;;;5032712;28;20045;-79
2021/08/25 02:24:09;;;;;;;24.42;15.52;;;14.30;89.10;;;;;;5032669;28;20045;-78
2021/08/25 02:26:37;;;;;;;23.90;15.57;;;14.30;89.10;;;;;;5033928;28;20052;-78
2021/08/25 02:29:07;;;;;;;24.23;14.57;;;14.30;89.10;;;;;;5033750;28;20368;-77
2021/08/25 02:31:35;;;;;;;21.13;14.10;;;14.30;89.10;;;;;;5032774;28;20050;-77
2021/08/25 02:34:05;;;;;;;24.23;14.65;;;14.30;89.10;;;;;;5016462;28;20049;-77
2021/08/25 02:36:33;;;;;;;25.95;14.55;;;14.30;89.10;;;;;;5033679;28;20045;-77
2021/08/25 02:39:01;;;;;;;25.77;14.57;;;14.30;89.10;;;;;;5032417;28;20041;-78
2021/08/25 02:41:29;;;;;;;27.15;15.85;;;14.30;89.00;;;;;;5033524;28;20407;-78
2021/08/25 02:43:56;;;;;;;25.75;16.55;;;14.40;89.00;;;;;;5032021;28;20049;-78
2021/08/25 02:46:24;;;;;;;25.38;16.23;;;14.30;88.90;;;;;;5033536;28;20037;-78
2021/08/25 02:48:52;;;;;;;32.00;18.17;;;14.40;88.90;;;;;;5032078;28;20049;-78
2021/08/25 02:51:22;;;;;;;31.55;19.63;;;14.30;88.90;;;;;;5032176;28;20049;-78
2021/08/25 02:53:50;;;;;;;31.60;17.90;;;14.30;89.00;;;;;;4999886;28;20049;-78
2021/08/25 02:56:18;;;;;;;28.98;17.13;;;14.20;89.10;;;;;;5033204;28;20049;-77
2021/08/25 02:58:46;;;;;;;32.53;19.23;;;14.20;89.10;;;;;;5032071;28;20056;-77
2021/08/25 03:01:13;;;;;;;33.15;19.80;;;14.20;89.20;;;;;;5031652;28;20494;-77
2021/08/25 03:03:47;;;;;;;35.85;21.60;;;14.20;89.20;;;;;;5031640;28;20076;-78
2021/08/25 03:06:17;;;;;;;33.88;21.50;;;14.20;89.30;;;;;;5015836;28;20044;-77
2021/08/25 03:08:44;;;;;;;36.45;22.25;;;14.20;89.30;;;;;;5031234;28;20468;-77
2021/08/25 03:11:12;;;;;;;35.17;22.40;;;14.10;89.40;;;;;;4999225;28;20050;-77
2021/08/25 03:13:40;;;;;;;38.10;22.85;;;14.20;89.40;;;;;;5031841;28;20041;-77
2021/08/25 03:16:08;;;;;;;40.20;23.63;;;14.10;89.40;;;;;;5033014;28;20057;-79
2021/08/25 03:18:36;;;;;;;42.95;25.48;;;14.10;89.50;;;;;;5032775;28;20399;-77
2021/08/25 03:21:06;;;;;;;42.05;24.77;;;14.10;89.50;;;;;;5033292;28;20498;-77
2021/08/25 03:23:34;;;;;;;39.97;23.33;;;14.10;89.50;;;;;;5011037;28;20052;-78
2021/08/25 03:26:03;;;;;;;45.58;24.23;;;14.00;89.60;;;;;;5013047;28;20049;-77
2021/08/25 03:28:31;;;;;;;44.65;26.35;;;14.00;89.70;;;;;;5012954;28;20046;-77
2021/08/25 03:30:59;;;;;;;45.58;25.73;;;14.00;89.80;;;;;;5013373;28;20042;-78
2021/08/25 03:33:26;;;;;;;48.20;26.83;;;14.00;89.80;;;;;;5022303;28;20060;-78
2021/08/25 03:35:54;;;;;;;44.20;25.23;;;14.00;89.90;;;;;;5031547;28;20049;-78
2021/08/25 03:38:22;;;;;;;45.63;26.77;;;14.00;89.90;;;;;;5015587;28;20050;-77
2021/08/25 03:40:50;;;;;;;42.80;26.05;;;14.00;90.00;;;;;;5032991;28;20046;-78
2021/08/25 03:43:17;;;;;;;48.20;27.05;;;14.00;90.00;;;;;;5031709;28;20049;-77
2021/08/25 03:45:45;;;;;;;48.47;25.98;;;14.00;90.00;;;;;;5032427;28;20475;-78
2021/08/25 03:48:12;;;;;;;42.47;24.52;;;14.00;90.10;;;;;;5032361;28;20045;-78
2021/08/25 03:50:40;;;;;;;42.42;24.27;;;14.00;90.10;;;;;;5032593;28;20056;-78
2021/08/25 03:53:08;;;;;;;41.65;24.90;;;14.00;90.20;;;;;;5015073;28;20467;-78
2021/08/25 03:55:35;;;;;;;39.45;23.02;;;14.00;90.20;;;;;;5031236;28;20042;-78
2021/08/25 03:58:05;;;;;;;39.28;23.00;;;13.90;90.20;;;;;;5014527;28;20045;-78
2021/08/25 04:00:33;;;;;;;43.55;24.48;;;13.90;90.30;;;;;;5032139;28;20045;-78
2021/08/25 04:03:00;;;;;;;39.60;22.85;;;13.90;90.30;;;;;;5032075;28;20058;-77
2021/08/25 04:05:31;;;;;;;42.13;24.23;;;13.90;90.40;;;;;;5031407;28;20037;-77
2021/08/25 04:07:59;;;;;;;42.75;23.38;;;13.90;90.40;;;;;;5030925;28;20064;-77
2021/08/25 04:10:27;;;;;;;45.38;22.83;;;13.90;90.40;;;;;;5030862;28;20056;-78
2021/08/25 04:12:54;;;;;;;39.05;22.92;;;13.90;90.40;;;;;;5031234;28;20056;-78
2021/08/25 04:15:22;;;;;;;38.03;22.50;;;13.90;90.40;;;;;;5030888;28;20348;-78
2021/08/25 04:17:52;;;;;;;44.08;23.00;;;13.90;90.30;;;;;;5032036;28;20495;-78
2021/08/25 04:20:22;;;;;;;39.47;22.95;;;14.00;90.30;;;;;;5018274;28;20049;-78
2021/08/25 04:22:50;;;;;;;36.55;21.45;;;14.00;90.30;;;;;;5036234;28;20056;-78
2021/08/25 04:25:18;;;;;;;38.33;22.70;;;14.00;90.20;;;;;;5036060;28;20042;-77
2021/08/25 04:27:48;;;;;;;39.05;22.35;;;14.10;90.20;;;;;;5035020;28;20049;-78
2021/08/25 04:30:16;;;;;;;40.05;23.13;;;14.10;90.20;;;;;;5034865;28;20045;-78
2021/08/25 04:32:43;;;;;;;36.75;23.08;;;14.10;90.10;;;;;;5035824;28;20057;-78
2021/08/25 04:35:11;;;;;;;36.03;22.33;;;14.20;90.10;;;;;;5034158;28;20403;-78
2021/08/25 04:37:39;;;;;;;37.78;23.08;;;14.20;90.10;;;;;;5034786;28;20049;-78
2021/08/25 04:40:07;;;;;;;39.60;23.13;;;14.20;90.00;;;;;;5035874;28;20482;-78
2021/08/25 04:42:35;;;;;;;36.75;23.10;;;14.20;90.00;;;;;;5032704;28;20057;-78
2021/08/25 04:45:03;;;;;;;39.97;23.67;;;14.30;90.00;;;;;;5034741;28;20064;-76
2021/08/25 04:47:33;;;;;;;37.22;23.27;;;14.30;89.90;;;;;;5034543;28;20064;-78
2021/08/25 04:50:00;;;;;;;35.72;22.58;;;14.30;89.90;;;;;;5034579;28;20054;-77
2021/08/25 04:52:28;;;;;;;37.67;23.35;;;14.30;89.80;;;;;;5035436;28;20049;-77
2021/08/25 04:54:56;;;;;;;36.20;22.92;;;14.30;89.80;;;;;;5035403;28;20045;-77
2021/08/25 04:57:23;;;;;;;38.95;23.40;;;14.30;89.80;;;;;;5034341;28;20049;-77
2021/08/25 04:59:51;;;;;;;38.03;22.13;;;14.40;89.80;;;;;;5034665;28;20505;-77
2021/08/25 05:02:19;;;;;;;35.95;21.50;;;14.40;89.80;;;;;;5035097;28;20052;-78
2021/08/25 05:04:47;;;;;;;31.27;20.73;;;14.40;89.70;;;;;;5034160;28;20490;-78
2021/08/25 05:07:15;;;;;;;32.45;20.73;;;14.40;89.70;;;;;;5017559;28;20046;-78
2021/08/25 05:09:43;;;;;;;28.35;18.27;;;14.50;89.70;;;;;;5033992;28;20049;-78
2021/08/25 05:12:10;;;;;;;28.85;18.35;;;14.50;89.50;;;;;;5035132;28;20052;-78
2021/08/25 05:14:38;;;;;;;28.73;17.38;;;14.50;89.50;;;;;;5034111;28;20046;-78
2021/08/25 05:17:06;;;;;;;19.65;13.60;;;14.50;89.30;;;;;;5017945;28;20060;-78
2021/08/25 05:19:33;;;;;;;23.83;12.82;;;14.60;89.00;;;;;;5034990;28;20045;-77
2021/08/25 05:22:01;;;;;;;16.38;12.13;;;14.60;88.50;;;;;;5033397;28;20045;-78
2021/08/25 05:24:29;;;;;;;17.63;11.73;;;14.60;88.20;;;;;;5034972;28;20529;-77
2021/08/25 05:26:56;;;;;;;16.92;11.73;;;14.60;87.90;;;;;;5035823;28;20065;-78
2021/08/25 05:29:24;;;;;;;20.42;12.65;;;14.60;87.70;;;;;;5035386;28;20050;-78
2021/08/25 05:31:52;;;;;;;17.50;13.05;;;14.70;87.50;;;;;;5032467;28;20056;-78
2021/08/25 05:34:19;;;;;;;20.25;14.07;;;14.60;87.30;;;;;;5034791;28;20049;-78
2021/08/25 05:36:47;;;;;;;19.83;12.45;;;14.70;87.20;;;;;;5035078;28;20045;-77
2021/08/25 05:39:15;;;;;;;18.85;12.32;;;14.70;87.00;;;;;;5017479;28;20049;-77
2021/08/25 05:41:43;;;;;;;19.90;12.63;;;14.70;86.80;;;;;;5034716;28;20434;-79
2021/08/25 05:44:10;;;;;;;18.38;11.55;;;14.70;86.70;;;;;;5033153;28;20395;-77
2021/08/25 05:46:41;;;;;;;16.98;11.95;;;14.70;86.60;;;;;;5034833;28;20057;-77
2021/08/25 05:49:09;;;;;;;18.67;12.32;;;14.70;86.50;;;;;;5033079;28;20526;-78
2021/08/25 05:51:36;;;;;;;19.30;11.60;;;14.70;86.40;;;;;;5016923;28;20042;-77
2021/08/25 05:54:04;;;;;;;16.40;11.75;;;14.70;86.30;;;;;;5034876;28;20061;-79
2021/08/25 05:56:32;;;;;;;16.55;11.80;;;14.70;86.20;;;;;;5033400;28;20048;-78
2021/08/25 05:59:00;;;;;;;15.10;10.27;;;14.70;86.10;;;;;;5016390;28;20056;-78
2021/08/25 06:01:31;;;;;;;14.35;11.13;;;14.80;86.00;;;;;;5016689;28;20050;-78
2021/08/25 06:03:59;;;;;;;11.55;8.43;;;14.70;85.70;;;;;;5032354;28;20064;-78
2021/08/25 06:06:30;;;;;;;10.98;7.80;;;14.80;85.50;;;;;;5034266;28;20406;-78
2021/08/25 06:08:58;;;;;;;10.60;8.30;;;14.80;85.30;;;;;;5032880;28;20495;-78
2021/08/25 06:11:25;;;;;;;8.82;6.65;;;14.80;85.00;;;;;;5000952;28;20061;-78
2021/08/25 06:13:54;;;;;;;8.45;6.65;;;14.80;84.70;;;;;;5033146;28;20052;-77
2021/08/25 06:16:22;;;;;;;8.38;6.65;;;14.80;84.30;;;;;;5032926;28;20057;-78
2021/08/25 06:18:50;;;;;;;9.55;7.43;;;14.80;83.90;;;;;;5034598;28;20041;-78
2021/08/25 06:21:18;;;;;;;11.48;8.48;;;14.80;83.70;;;;;;5032933;28;20050;-78
2021/08/25 06:23:46;;;;;;;12.02;9.27;;;14.80;83.60;;;;;;5000050;28;20053;-77
2021/08/25 06:26:15;;;;;;;10.15;8.80;;;14.80;83.40;;;;;;5033809;28;20057;-78
2021/08/25 06:28:43;;;;;;;14.02;8.63;;;14.80;83.30;;;;;;5016155;28;20076;-78
2021/08/25 06:31:14;;;;;;;10.35;7.70;;;14.80;83.10;;;;;;5033445;28;20045;-78
2021/08/25 06:33:41;;;;;;;8.27;7.00;;;14.90;83.10;;;;;;5033633;28;20525;-78
2021/08/25 06:36:09;;;;;;;11.18;7.55;;;14.90;82.90;;;;;;5032710;28;20057;-78
2021/08/25 06:38:37;;;;;;;11.02;8.43;;;14.80;82.80;;;;;;5033622;28;20483;-79
2021/08/25 06:41:04;;;;;;;10.75;8.57;;;14.90;82.70;;;;;;5033709;28;20052;-78
2021/08/25 06:43:32;;;;;;;11.85;8.30;;;14.90;82.60;;;;;;5031432;28;20068;-78
2021/08/25 06:46:00;;;;;;;9.02;7.20;;;14.90;82.60;;;;;;5034127;28;20041;-78
2021/08/25 06:48:28;;;;;;;10.15;7.78;;;14.90;82.60;;;;;;5032432;28;20052;-79
2021/08/25 06:50:56;;;;;;;9.13;6.32;;;14.90;82.50;;;;;;5032663;28;20060;-78
2021/08/25 06:53:24;;;;;;;7.63;5.72;;;14.90;82.40;;;;;;5033069;28;20520;-78
2021/08/25 06:56:01;;;;;;;9.45;7.72;;;14.90;82.20;;;;;;5035241;28;20387;-78
2021/08/25 06:58:29;;;;;;;8.95;7.18;;;14.90;82.10;;;;;;5016723;28;20060;-78
2021/08/25 07:00:57;;;;;;;10.30;7.68;;;14.90;82.00;;;;;;5015984;28;20050;-79
2021/08/25 07:03:25;;;;;;;11.80;7.43;;;14.90;81.90;;;;;;5031850;28;20052;-78
2021/08/25 07:05:53;;;;;;;4.90;4.43;;;15.00;81.80;;;;;;5015900;28;20058;-78
2021/08/25 07:08:21;;;;;;;5.15;4.60;;;14.90;81.70;;;;;;5031867;28;20046;-78
2021/08/25 07:10:49;;;;;;;4.90;3.88;;;14.90;81.50;;;;;;5033136;28;20060;-79
2021/08/25 07:13:17;;;;;;;6.60;3.80;;;14.90;81.40;;;;;;5033204;28;20089;-78
2021/08/25 07:15:45;;;;;;;3.63;2.78;;;14.90;81.30;;;;;;5031654;28;20041;-79
2021/08/25 07:18:13;;;;;;;6.40;2.88;;;14.90;81.20;;;;;;5032845;28;20045;-78
2021/08/25 07:20:46;;;;;;;4.28;2.80;;;14.90;81.10;;;;;;5032884;28;20360;-78
2021/08/25 07:23:14;;;;;;;6.20;2.92;;;14.90;81.10;;;;;;5031752;28;20061;-77
2021/08/25 07:25:42;;;;;;;4.82;2.72;;;14.90;81.00;;;;;;5015559;28;20045;-77
2021/08/25 07:28:10;;;;;;;2.90;2.60;;;15.00;81.00;;;;;;5033060;28;20057;-78
2021/08/25 07:30:38;;;;;;;3.72;1.90;;;15.00;80.90;;;;;;5031509;28;20068;-78
2021/08/25 07:33:11;;;;;;;4.32;2.40;;;15.10;80.70;;;;;;5032556;28;20398;-78
2021/08/25 07:35:46;;;;;;;2.00;1.73;;;15.10;80.50;;;;;;5031461;28;20375;-78
2021/08/25 07:38:14;;;;;;;1.92;1.60;;;15.10;80.40;;;;;;5031220;28;20507;-79
2021/08/25 07:40:44;;;;;;;2.15;1.90;;;15.20;80.10;;;;;;5032540;28;20053;-78
2021/08/25 07:43:12;;;;;;;2.45;1.90;;;15.20;79.90;;;;;;5014619;28;20045;-78
2021/08/25 07:45:40;;;;;;;2.83;2.17;;;15.20;79.80;;;;;;5031542;28;20041;-78
2021/08/25 07:48:08;;;;;;;2.97;2.08;;;15.20;79.80;;;;;;4998932;28;20049;-77
2021/08/25 07:50:36;;;;;;;2.15;1.95;;;15.30;79.80;;;;;;5032062;28;20064;-78
2021/08/25 07:53:03;;;;;;;4.72;1.95;;;15.30;79.80;;;;;;5015329;28;20427;-77
2021/08/25 07:55:31;;;;;;;2.25;1.90;;;15.30;79.80;;;;;;5030954;28;20056;-78
2021/08/25 07:58:00;;;;;;;2.30;2.10;;;15.30;79.60;;;;;;5031237;28;20052;-80
2021/08/25 08:00:28;;;;;;;3.13;2.20;;;15.20;79.40;;;;;;5014651;28;20050;-78
2021/08/25 08:02:55;;;;;;;2.78;2.10;;;15.20;79.30;;;;;;5030729;28;20061;-78
2021/08/25 08:05:25;;;;;;;2.80;2.40;;;15.20;79.30;;;;;;5031231;28;20041;-78
2021/08/25 08:07:53;;;;;;;4.00;2.10;;;15.30;79.30;;;;;;5032081;28;20479;-78
2021/08/25 08:10:21;;;;;;;2.30;2.10;;;15.20;79.20;;;;;;5031159;28;20045;-78
2021/08/25 08:12:52;;;;;;;2.63;1.92;;;15.30;79.20;;;;;;5031982;28;20045;-78
2021/08/25 08:15:20;;;;;;;2.90;1.88;;;15.30;79.10;;;;;;5014571;28;20049;-78
2021/08/25 08:17:49;;;;;;;2.13;1.92;;;15.30;79.10;;;;;;5014694;28;20080;-79
2021/08/25 08:20:17;;;;;;;2.10;1.90;;;15.30;79.00;;;;;;5032013;28;20049;-79
2021/08/25 08:22:45;;;;;;;2.80;2.50;;;15.40;78.90;;;;;;5030722;28;20413;-79
2021/08/25 08:25:12;;;;;;;4.78;2.58;;;15.50;78.80;;;;;;5031178;28;20049;-79
2021/08/25 08:27:47;;;;;;;3.60;3.05;;;15.70;78.70;;;;;;5030931;28;20491;-79
2021/08/25 08:30:15;;;;;;;4.53;3.17;;;15.80;78.40;;;;;;5014571;28;20152;-78
2021/08/25 08:32:43;;;;;;;2.90;2.60;;;15.90;78.20;;;;;;5030837;28;20048;-78
2021/08/25 08:35:11;;;;;;;3.58;2.95;;;16.00;77.80;;;;;;5030726;28;20050;-77
2021/08/25 08:37:39;;;;;;;6.00;3.03;;;16.20;77.40;;;;;;5031987;28;20057;-79
2021/08/25 08:40:07;;;;;;;3.55;3.25;;;16.20;77.20;;;;;;5030523;28;20058;-78
2021/08/25 08:42:35;;;;;;;7.47;2.92;;;16.30;77.00;;;;;;5031928;28;20049;-78
2021/08/25 08:45:08;;;;;;;3.65;2.50;;;16.30;76.80;;;;;;5031174;28;20526;-78
2021/08/25 08:47:36;;;;;;;3.22;2.38;;;16.30;76.70;;;;;;5031813;28;20045;-79
2021/08/25 08:50:05;;;;;;;2.92;2.40;;;16.30;76.70;;;;;;5030643;28;20053;-79
2021/08/25 08:52:33;;;;;;;2.80;2.20;;;16.30;76.70;;;;;;5030371;28;20053;-78
2021/08/25 08:55:01;;;;;;;3.83;2.42;;;16.30;76.70;;;;;;5030976;28;20053;-79
2021/08/25 08:57:29;;;;;;;4.40;2.30;;;16.30;76.70;;;;;;5030230;28;20053;-79
2021/08/25 09:00:01;;;;;;;4.63;2.42;;;16.30;76.70;;;;;;5031634;28;20056;-78
2021/08/25 09:02:39;;;;;;;5.50;2.03;;;16.30;76.80;;;;;;5031694;28;20049;-79
2021/08/25 09:05:24;;;;;;;4.17;2.33;;;16.30;76.70;;;;;;5030551;28;20050;-78
2021/08/25 09:07:58;;;;;;;2.78;2.20;;;16.30;76.70;;;;;;5033884;28;20295;-79
2021/08/25 09:10:34;;;;;;;2.72;1.40;;;16.20;76.70;;;;;;5035269;28;20060;-78
2021/08/25 09:13:07;;;;;;;2.65;1.08;;;16.10;76.70;;;;;;5033958;28;20048;-78
2021/08/25 09:15:41;;;;;;;1.70;1.23;;;16.10;76.80;;;;;;5033552;28;20072;-78
2021/08/25 09:18:15;;;;;;;1.50;0.80;;;16.10;76.80;;;;;;5017799;28;20072;-78
2021/08/25 09:20:46;;;;;;;3.28;0.93;;;16.10;76.90;;;;;;5035175;28;20323;-78
2021/08/25 09:23:17;;;;;;;1.05;0.80;;;16.10;76.70;;;;;;5033876;28;20045;-77
2021/08/25 09:25:53;;;;;;;2.97;0.93;;;16.20;76.70;;;;;;5034311;28;20054;-78
2021/08/25 09:28:49;;;;;;;2.03;0.88;;;16.30;76.80;;;;;;5018042;28;20041;-79
2021/08/25 09:31:16;;;;;;;1.13;0.90;;;16.30;76.60;;;;;;5033440;28;20050;-78
2021/08/25 09:33:47;;;;;;;2.47;0.75;;;16.30;76.50;;;;;;5034836;28;20054;-78
2021/08/25 09:36:17;;;;;;;1.10;0.93;;;16.30;76.20;;;;;;5033695;28;20049;-79
2021/08/25 09:38:56;;;;;;;0.88;0.88;;;16.40;76.20;;;;;;5034746;28;20045;-80
2021/08/25 09:41:24;;;;;;;1.30;0.98;;;16.40;75.80;;;;;;5034699;28;20042;-79
2021/08/25 09:43:52;;;;;;;3.50;0.93;;;16.50;75.80;;;;;;5034948;28;20049;-79
2021/08/25 09:46:22;;;;;;;1.35;1.05;;;16.60;75.70;;;;;;5035020;28;20053;-78
2021/08/25 09:48:58;;;;;;;2.30;1.20;;;16.70;75.40;;;;;;5033654;28;20068;-79
2021/08/25 09:51:36;;;;;;;1.70;1.42;;;16.80;75.10;;;;;;5034611;28;20514;-79
2021/08/25 09:54:11;;;;;;;1.75;1.45;;;16.90;74.80;;;;;;5016865;28;20503;-79
2021/08/25 09:56:40;;;;;;;1.40;1.30;;;16.90;74.80;;;;;;5033341;28;20046;-79
2021/08/25 09:59:11;;;;;;;2.17;1.52;;;17.00;74.70;;;;;;5033254;28;20503;-79
2021/08/25 10:01:39;;;;;;;2.25;1.73;;;17.10;74.50;;;;;;5033244;28;20045;-79
2021/08/25 10:04:11;;;;;;;1.60;1.50;;;17.10;74.60;;;;;;5034106;28;20068;-79
2021/08/25 10:06:41;;;;;;;1.85;1.73;;;17.10;74.60;;;;;;5034502;28;20045;-79
2021/08/25 10:09:10;;;;;;;1.80;1.40;;;17.20;74.40;;;;;;5034500;28;20049;-79
2021/08/25 10:11:45;;;;;;;1.90;1.70;;;17.30;74.50;;;;;;5033758;28;20064;-79
2021/08/25 10:14:16;;;;;;;2.60;1.70;;;17.40;74.40;;;;;;5033257;28;20402;-79
2021/08/25 10:16:49;;;;;;;1.80;1.70;;;17.50;74.00;;;;;;5034229;28;20513;-78
2021/08/25 10:19:34;;;;;;;1.60;1.50;;;17.60;73.70;;;;;;5033236;28;20068;-80
2021/08/25 10:22:24;;;;;;;1.75;1.60;;;17.50;73.40;;;;;;5032865;28;20056;-78
2021/08/25 10:25:04;;;;;;;3.13;1.70;;;17.60;73.30;;;;;;5033191;28;20045;-78
2021/08/25 10:27:34;;;;;;;1.70;1.60;;;17.60;73.20;;;;;;5032675;28;20054;-79
2021/08/25 10:30:14;;;;;;;2.00;1.85;;;17.70;73.10;;;;;;5033180;28;20064;-78
2021/08/25 10:32:51;;;;;;;2.10;2.00;;;17.70;72.90;;;;;;5016363;28;20080;-78
2021/08/25 10:35:29;;;;;;;2.33;1.90;;;17.60;72.80;;;;;;5033882;28;20057;-79
2021/08/25 10:38:16;;;;;;;2.90;2.15;;;17.50;72.90;;;;;;5033503;28;20045;-78
2021/08/25 10:40:43;;;;;;;3.33;2.92;;;17.30;73.20;;;;;;5032445;28;20052;-78
2021/08/25 10:43:34;;;;;;;3.33;3.03;;;17.30;73.50;;;;;;5016193;28;20463;-78
2021/08/25 10:46:04;;;;;;;3.10;2.80;;;17.30;73.60;;;;;;5031536;28;20050;-78
2021/08/25 10:48:37;;;;;;;3.70;3.38;;;17.20;73.90;;;;;;5032827;28;20061;-78
2021/08/25 10:51:19;;;;;;;4.28;3.42;;;17.20;74.10;;;;;;5032400;28;20045;-78
2021/08/25 10:53:48;;;;;;;3.63;3.22;;;17.30;74.20;;;;;;5033391;28;20510;-79
2021/08/25 10:56:27;;;;;;;3.00;2.70;;;17.30;74.10;;;;;;5033445;28;20057;-79
2021/08/25 10:58:59;;;;;;;3.00;2.72;;;17.50;73.70;;;;;;5032076;28;20057;-79
2021/08/25 11:01:33;;;;;;;4.82;3.30;;;17.70;73.20;;;;;;5032143;28;20206;-78
2021/08/25 11:04:22;;;;;;;9.35;3.80;;;17.90;73.10;;;;;;5032252;28;20061;-79
2021/08/25 11:07:10;;;;;;;6.82;4.10;;;18.00;72.70;;;;;;5018072;28;20042;-79
2021/08/25 11:09:42;;;;;;;4.68;3.92;;;18.00;72.30;;;;;;5013310;28;20064;-79
2021/08/25 11:12:11;;;;;;;5.07;4.10;;;18.00;72.10;;;;;;5012212;28;20057;-79
2021/08/25 11:14:44;;;;;;;7.25;4.15;;;17.90;72.20;;;;;;5013022;28;20447;-78
2021/08/25 11:17:22;;;;;;;;;;;17.80;72.30;;;;;;4997030;28;20098;-78
2021/08/25 11:19:55;;;;;;;5.50;4.28;;;17.70;72.40;;;;;;5013401;28;19929;-78
2021/08/25 11:22:33;;;;;;;5.13;4.40;;;17.60;72.60;;;;;;5011779;28;20049;-78
2021/08/25 11:25:04;;;;;;;5.10;4.13;;;17.60;72.90;;;;;;5012157;28;20053;-79
2021/08/25 11:27:39;;;;;;;4.15;3.72;;;17.60;73.00;;;;;;5012158;28;20057;-79
2021/08/25 11:30:20;;;;;;;4.82;4.40;;;17.60;73.10;;;;;;5011353;28;20544;-80
2021/08/25 11:33:07;;;;;;;4.50;3.15;;;17.70;73.00;;;;;;5011827;28;20052;-78
2021/08/25 11:35:38;;;;;;;3.00;2.80;;;17.80;72.40;;;;;;5012741;28;20060;-78
2021/08/25 11:38:15;;;;;;;2.28;2.08;;;17.90;71.80;;;;;;5012078;28;20046;-79
2021/08/25 11:40:46;;;;;;;3.05;2.10;;;18.10;71.30;;;;;;5012209;28;20053;-78
2021/08/25 11:43:20;;;;;;;2.55;2.25;;;18.20;70.70;;;;;;5012022;28;20049;-79
2021/08/25 11:45:52;;;;;;;4.00;2.53;;;18.30;70.30;;;;;;5012844;28;20399;-79
2021/08/25 11:48:27;;;;;;;2.80;2.60;;;18.40;69.90;;;;;;5012117;28;20046;-79
2021/08/25 11:50:57;;;;;;;2.60;2.40;;;18.50;69.50;;;;;;5012699;28;20045;-79
2021/08/25 11:53:27;;;;;;;3.28;2.92;;;18.50;69.40;;;;;;5011641;28;20057;-79
2021/08/25 11:55:57;;;;;;;4.63;2.45;;;18.50;69.20;;;;;;5012578;28;20052;-79
2021/08/25 11:58:34;;;;;;;2.40;2.20;;;18.50;69.20;;;;;;4995210;28;20053;-79
2021/08/25 12:01:03;;;;;;;2.53;2.25;;;18.60;68.70;;;;;;5013410;28;20068;-79
2021/08/25 12:03:42;;;;;;;2.80;2.60;;;18.70;68.60;;;;;;4995592;28;20061;-79
2021/08/25 12:06:12;;;;;;;2.80;2.60;;;18.80;68.10;;;;;;4996113;28;20073;-79
2021/08/25 12:08:44;;;;;;;4.88;2.70;;;18.90;68.00;;;;;;5012957;28;20073;-79
2021/08/25 12:11:14;;;;;;;4.25;2.67;;;19.10;67.60;;;;;;5012538;28;20050;-78
2021/08/25 12:13:47;;;;;;;2.28;2.08;;;19.30;67.40;;;;;;4979373;28;20057;-78
2021/08/25 12:16:27;;;;;;;2.35;2.15;;;19.60;66.70;;;;;;5013091;28;20046;-78
2021/08/25 12:19:00;;;;;;;2.25;2.10;;;19.80;66.00;;;;;;5013218;28;20474;-78
2021/08/25 12:21:49;;;;;;;2.30;2.10;;;19.90;65.50;;;;;;4995735;28;20050;-78
2021/08/25 12:24:18;;;;;;;4.18;2.50;;;20.00;64.90;;;;;;5012542;28;20042;-78
2021/08/25 12:26:54;;;;;;;2.45;2.25;;;20.00;64.60;;;;;;5011157;28;20042;-80
2021/08/25 12:29:30;;;;;;;2.83;2.17;;;20.00;64.30;;;;;;5011484;28;20049;-79
2021/08/25 12:31:59;;;;;;;3.72;2.28;;;19.90;64.20;;;;;;5012348;28;20042;-79
2021/08/25 12:34:27;;;;;;;2.80;2.60;;;19.90;64.20;;;;;;4994923;28;20050;-78
2021/08/25 12:36:56;;;;;;;2.80;2.45;;;20.00;64.50;;;;;;5012135;28;20050;-78
2021/08/25 12:39:41;;;;;;;7.07;2.30;;;20.00;64.70;;;;;;5011368;28;20052;-78
2021/08/25 12:42:10;;;;;;;3.75;2.40;;;20.10;64.80;;;;;;5016331;28;20050;-80
2021/08/25 12:44:38;;;;;;;2.40;2.20;;;20.20;64.30;;;;;;5015264;28;20403;-80
2021/08/25 12:47:11;;;;;;;4.22;2.20;;;20.30;63.30;;;;;;5015168;28;20073;-80
2021/08/25 12:49:39;;;;;;;2.25;2.15;;;20.40;63.10;;;;;;5015004;28;20049;-78
2021/08/25 12:52:07;;;;;;;2.20;2.00;;;20.60;63.10;;;;;;5015983;28;20045;-79
2021/08/25 12:54:38;;;;;;;2.55;2.35;;;20.80;62.60;;;;;;5014932;28;20049;-78